sensor_id;sensor_type;location;lat;lon;timestamp;P1;durP1;ratioP1;P2;durP2;ratioP2
32236;SDS011;18726;44.732;10.550;2023-03-01T00:03:01;45.47;;;30.98;;
32236;SDS011;18726;44.732;10.550;2023-03-01T00:06:05;36.28;;;29.40;;
32236;SDS011;18726;44.732;10.550;2023-03-01T00:09:09;33.92;;;28.15;;
32236;SDS011;18726;44.732;10.550;2023-03-01T00:12:12;37.13;;;27.95;;
32236;SDS011;18726;44.732;10.550;2023-03-01T00:15:16;32.97;;;26.38;;
32236;SDS011;18726;44.732;10.550;2023-03-01T00:18:20;33.72;;;27.92;;
32236;SDS011;18726;44.732;10.550;2023-03-01T00:21:23;34.72;;;26.80;;
32236;SDS011;18726;44.732;10.550;2023-03-01T00:24:28;36.88;;;28.92;;
32236;SDS011;18726;44.732;10.550;2023-03-01T00:27:32;37.97;;;29.00;;
32236;SDS011;18726;44.732;10.550;2023-03-01T00:30:36;41.08;;;29.30;;
32236;SDS011;18726;44.732;10.550;2023-03-01T00:33:40;42.55;;;31.77;;
32236;SDS011;18726;44.732;10.550;2023-03-01T00:36:44;36.15;;;26.70;;
32236;SDS011;18726;44.732;10.550;2023-03-01T00:39:48;36.92;;;27.70;;
32236;SDS011;18726;44.732;10.550;2023-03-01T00:42:52;36.25;;;28.38;;
32236;SDS011;18726;44.732;10.550;2023-03-01T00:46:00;38.00;;;29.60;;
32236;SDS011;18726;44.732;10.550;2023-03-01T00:49:04;38.97;;;28.25;;
32236;SDS011;18726;44.732;10.550;2023-03-01T00:52:08;33.33;;;26.77;;
32236;SDS011;18726;44.732;10.550;2023-03-01T00:55:12;33.25;;;27.38;;
32236;SDS011;18726;44.732;10.550;2023-03-01T00:58:17;39.10;;;29.42;;
32236;SDS011;18726;44.732;10.550;2023-03-01T01:01:21;31.20;;;26.58;;
32236;SDS011;18726;44.732;10.550;2023-03-01T01:04:26;34.10;;;27.08;;
32236;SDS011;18726;44.732;10.550;2023-03-01T01:07:30;34.25;;;25.83;;
32236;SDS011;18726;44.732;10.550;2023-03-01T01:10:34;37.92;;;28.60;;
32236;SDS011;18726;44.732;10.550;2023-03-01T01:13:39;35.42;;;27.50;;
32236;SDS011;18726;44.732;10.550;2023-03-01T01:16:43;33.47;;;25.92;;
32236;SDS011;18726;44.732;10.550;2023-03-01T01:19:47;33.17;;;26.70;;
32236;SDS011;18726;44.732;10.550;2023-03-01T01:22:51;32.28;;;27.38;;
32236;SDS011;18726;44.732;10.550;2023-03-01T01:25:55;32.50;;;26.83;;
32236;SDS011;18726;44.732;10.550;2023-03-01T01:29:00;34.00;;;26.48;;
32236;SDS011;18726;44.732;10.550;2023-03-01T01:32:05;31.42;;;24.90;;
32236;SDS011;18726;44.732;10.550;2023-03-01T01:35:08;30.90;;;25.33;;
32236;SDS011;18726;44.732;10.550;2023-03-01T01:38:12;27.80;;;24.85;;
32236;SDS011;18726;44.732;10.550;2023-03-01T01:41:16;32.70;;;28.65;;
32236;SDS011;18726;44.732;10.550;2023-03-01T01:44:25;27.92;;;24.45;;
32236;SDS011;18726;44.732;10.550;2023-03-01T01:47:30;31.08;;;25.25;;
32236;SDS011;18726;44.732;10.550;2023-03-01T01:50:34;31.00;;;23.58;;
32236;SDS011;18726;44.732;10.550;2023-03-01T01:53:42;29.40;;;24.92;;
32236;SDS011;18726;44.732;10.550;2023-03-01T01:56:49;30.48;;;24.23;;
32236;SDS011;18726;44.732;10.550;2023-03-01T01:59:58;30.70;;;23.42;;
32236;SDS011;18726;44.732;10.550;2023-03-01T02:03:23;30.30;;;23.02;;
32236;SDS011;18726;44.732;10.550;2023-03-01T02:06:33;31.30;;;25.30;;
32236;SDS011;18726;44.732;10.550;2023-03-01T02:09:45;31.73;;;24.73;;
32236;SDS011;18726;44.732;10.550;2023-03-01T02:12:51;31.60;;;24.23;;
32236;SDS011;18726;44.732;10.550;2023-03-01T02:15:56;31.63;;;24.60;;
32236;SDS011;18726;44.732;10.550;2023-03-01T02:19:00;31.70;;;25.98;;
32236;SDS011;18726;44.732;10.550;2023-03-01T02:22:30;30.20;;;25.17;;
32236;SDS011;18726;44.732;10.550;2023-03-01T02:25:39;33.65;;;26.25;;
32236;SDS011;18726;44.732;10.550;2023-03-01T02:28:45;27.38;;;22.98;;
32236;SDS011;18726;44.732;10.550;2023-03-01T02:31:49;29.05;;;23.60;;
32236;SDS011;18726;44.732;10.550;2023-03-01T02:34:56;26.13;;;22.13;;
32236;SDS011;18726;44.732;10.550;2023-03-01T02:38:00;38.92;;;24.40;;
32236;SDS011;18726;44.732;10.550;2023-03-01T02:41:04;29.38;;;23.15;;
32236;SDS011;18726;44.732;10.550;2023-03-01T02:44:10;26.48;;;23.35;;
32236;SDS011;18726;44.732;10.550;2023-03-01T02:47:14;24.85;;;22.17;;
32236;SDS011;18726;44.732;10.550;2023-03-01T02:50:22;31.15;;;23.45;;
32236;SDS011;18726;44.732;10.550;2023-03-01T02:56:56;28.40;;;22.23;;
32236;SDS011;18726;44.732;10.550;2023-03-01T03:00:03;31.00;;;23.15;;
32236;SDS011;18726;44.732;10.550;2023-03-01T03:03:12;33.70;;;23.83;;
32236;SDS011;18726;44.732;10.550;2023-03-01T03:06:18;29.80;;;23.77;;
32236;SDS011;18726;44.732;10.550;2023-03-01T03:09:23;26.60;;;20.42;;
32236;SDS011;18726;44.732;10.550;2023-03-01T03:12:27;28.10;;;23.55;;
32236;SDS011;18726;44.732;10.550;2023-03-01T03:15:31;28.30;;;22.88;;
32236;SDS011;18726;44.732;10.550;2023-03-01T03:18:34;23.55;;;19.92;;
32236;SDS011;18726;44.732;10.550;2023-03-01T03:21:38;25.88;;;21.73;;
32236;SDS011;18726;44.732;10.550;2023-03-01T03:24:41;27.90;;;23.52;;
32236;SDS011;18726;44.732;10.550;2023-03-01T03:27:46;28.60;;;23.85;;
32236;SDS011;18726;44.732;10.550;2023-03-01T03:30:51;28.92;;;21.00;;
32236;SDS011;18726;44.732;10.550;2023-03-01T03:33:55;30.30;;;23.08;;
32236;SDS011;18726;44.732;10.550;2023-03-01T03:37:00;32.63;;;24.05;;
32236;SDS011;18726;44.732;10.550;2023-03-01T03:40:03;29.52;;;22.73;;
32236;SDS011;18726;44.732;10.550;2023-03-01T03:43:19;24.33;;;21.10;;
32236;SDS011;18726;44.732;10.550;2023-03-01T03:46:24;24.90;;;20.65;;
32236;SDS011;18726;44.732;10.550;2023-03-01T03:49:28;27.50;;;20.52;;
32236;SDS011;18726;44.732;10.550;2023-03-01T03:52:32;26.25;;;21.92;;
32236;SDS011;18726;44.732;10.550;2023-03-01T03:55:35;35.78;;;23.40;;
32236;SDS011;18726;44.732;10.550;2023-03-01T03:58:42;26.42;;;22.40;;
32236;SDS011;18726;44.732;10.550;2023-03-01T04:01:45;30.33;;;24.13;;
32236;SDS011;18726;44.732;10.550;2023-03-01T04:04:49;24.20;;;20.83;;
32236;SDS011;18726;44.732;10.550;2023-03-01T04:07:52;25.88;;;21.80;;
32236;SDS011;18726;44.732;10.550;2023-03-01T04:11:04;25.15;;;20.75;;
32236;SDS011;18726;44.732;10.550;2023-03-01T04:14:27;29.50;;;21.17;;
32236;SDS011;18726;44.732;10.550;2023-03-01T04:17:30;25.55;;;21.75;;
32236;SDS011;18726;44.732;10.550;2023-03-01T04:20:34;26.17;;;20.30;;
32236;SDS011;18726;44.732;10.550;2023-03-01T04:23:38;22.95;;;20.48;;
32236;SDS011;18726;44.732;10.550;2023-03-01T04:26:44;26.55;;;21.75;;
32236;SDS011;18726;44.732;10.550;2023-03-01T04:29:47;25.75;;;21.13;;
32236;SDS011;18726;44.732;10.550;2023-03-01T04:32:51;28.02;;;22.15;;
32236;SDS011;18726;44.732;10.550;2023-03-01T04:35:55;26.20;;;21.00;;
32236;SDS011;18726;44.732;10.550;2023-03-01T04:39:00;29.63;;;22.15;;
32236;SDS011;18726;44.732;10.550;2023-03-01T04:42:15;29.42;;;23.42;;
32236;SDS011;18726;44.732;10.550;2023-03-01T04:45:20;30.35;;;23.85;;
32236;SDS011;18726;44.732;10.550;2023-03-01T04:48:23;29.13;;;22.73;;
32236;SDS011;18726;44.732;10.550;2023-03-01T04:51:27;32.08;;;24.05;;
32236;SDS011;18726;44.732;10.550;2023-03-01T04:54:31;25.33;;;20.77;;
32236;SDS011;18726;44.732;10.550;2023-03-01T04:57:36;28.70;;;21.88;;
32236;SDS011;18726;44.732;10.550;2023-03-01T05:00:40;23.42;;;18.88;;
32236;SDS011;18726;44.732;10.550;2023-03-01T05:03:45;34.17;;;24.50;;
32236;SDS011;18726;44.732;10.550;2023-03-01T05:06:53;26.77;;;21.13;;
32236;SDS011;18726;44.732;10.550;2023-03-01T05:09:57;27.83;;;21.98;;
32236;SDS011;18726;44.732;10.550;2023-03-01T05:13:00;25.50;;;20.17;;
32236;SDS011;18726;44.732;10.550;2023-03-01T05:16:06;29.75;;;22.20;;
32236;SDS011;18726;44.732;10.550;2023-03-01T05:19:14;25.35;;;19.60;;
32236;SDS011;18726;44.732;10.550;2023-03-01T05:22:25;24.80;;;21.63;;
32236;SDS011;18726;44.732;10.550;2023-03-01T05:25:29;24.80;;;20.35;;
32236;SDS011;18726;44.732;10.550;2023-03-01T05:28:36;25.13;;;20.33;;
32236;SDS011;18726;44.732;10.550;2023-03-01T05:31:41;31.27;;;20.33;;
32236;SDS011;18726;44.732;10.550;2023-03-01T05:34:44;30.42;;;23.20;;
32236;SDS011;18726;44.732;10.550;2023-03-01T05:37:49;28.15;;;21.83;;
32236;SDS011;18726;44.732;10.550;2023-03-01T05:40:54;30.98;;;22.88;;
32236;SDS011;18726;44.732;10.550;2023-03-01T05:43:58;26.45;;;20.48;;
32236;SDS011;18726;44.732;10.550;2023-03-01T05:47:01;32.28;;;22.60;;
32236;SDS011;18726;44.732;10.550;2023-03-01T05:50:04;27.73;;;22.95;;
32236;SDS011;18726;44.732;10.550;2023-03-01T05:53:17;29.38;;;18.90;;
32236;SDS011;18726;44.732;10.550;2023-03-01T05:56:23;26.52;;;21.08;;
32236;SDS011;18726;44.732;10.550;2023-03-01T05:59:27;38.58;;;29.23;;
32236;SDS011;18726;44.732;10.550;2023-03-01T06:02:30;41.97;;;29.10;;
32236;SDS011;18726;44.732;10.550;2023-03-01T06:05:34;37.75;;;27.30;;
32236;SDS011;18726;44.732;10.550;2023-03-01T06:08:37;34.67;;;24.83;;
32236;SDS011;18726;44.732;10.550;2023-03-01T06:11:40;37.28;;;27.38;;
32236;SDS011;18726;44.732;10.550;2023-03-01T06:14:45;29.17;;;22.98;;
32236;SDS011;18726;44.732;10.550;2023-03-01T06:17:51;27.75;;;21.08;;
32236;SDS011;18726;44.732;10.550;2023-03-01T06:20:58;26.83;;;20.48;;
32236;SDS011;18726;44.732;10.550;2023-03-01T06:24:02;36.60;;;25.70;;
32236;SDS011;18726;44.732;10.550;2023-03-01T06:27:06;28.08;;;20.80;;
32236;SDS011;18726;44.732;10.550;2023-03-01T06:30:10;25.58;;;18.77;;
32236;SDS011;18726;44.732;10.550;2023-03-01T06:33:17;24.52;;;18.65;;
32236;SDS011;18726;44.732;10.550;2023-03-01T06:36:23;17.80;;;15.30;;
32236;SDS011;18726;44.732;10.550;2023-03-01T06:39:27;22.55;;;18.02;;
32236;SDS011;18726;44.732;10.550;2023-03-01T06:42:31;22.35;;;16.60;;
32236;SDS011;18726;44.732;10.550;2023-03-01T06:45:34;19.17;;;15.05;;
32236;SDS011;18726;44.732;10.550;2023-03-01T06:48:38;25.48;;;18.27;;
32236;SDS011;18726;44.732;10.550;2023-03-01T06:51:41;23.77;;;17.00;;
32236;SDS011;18726;44.732;10.550;2023-03-01T06:54:45;26.20;;;18.77;;
32236;SDS011;18726;44.732;10.550;2023-03-01T06:57:48;21.52;;;16.27;;
32236;SDS011;18726;44.732;10.550;2023-03-01T07:00:56;26.42;;;19.48;;
32236;SDS011;18726;44.732;10.550;2023-03-01T07:04:00;28.42;;;22.38;;
32236;SDS011;18726;44.732;10.550;2023-03-01T07:07:03;30.20;;;23.00;;
32236;SDS011;18726;44.732;10.550;2023-03-01T07:10:07;29.50;;;23.92;;
32236;SDS011;18726;44.732;10.550;2023-03-01T07:13:11;26.98;;;20.65;;
32236;SDS011;18726;44.732;10.550;2023-03-01T07:16:15;27.35;;;17.00;;
32236;SDS011;18726;44.732;10.550;2023-03-01T07:19:19;22.75;;;16.30;;
32236;SDS011;18726;44.732;10.550;2023-03-01T07:22:23;28.08;;;20.42;;
32236;SDS011;18726;44.732;10.550;2023-03-01T07:25:27;28.50;;;21.13;;
32236;SDS011;18726;44.732;10.550;2023-03-01T07:28:31;22.98;;;18.67;;
32236;SDS011;18726;44.732;10.550;2023-03-01T07:31:38;23.33;;;17.85;;
32236;SDS011;18726;44.732;10.550;2023-03-01T07:34:42;23.75;;;20.10;;
32236;SDS011;18726;44.732;10.550;2023-03-01T07:37:46;20.42;;;17.48;;
32236;SDS011;18726;44.732;10.550;2023-03-01T07:40:50;24.75;;;17.85;;
32236;SDS011;18726;44.732;10.550;2023-03-01T07:43:53;23.85;;;21.05;;
32236;SDS011;18726;44.732;10.550;2023-03-01T07:46:56;26.48;;;21.95;;
32236;SDS011;18726;44.732;10.550;2023-03-01T07:50:01;33.10;;;24.30;;
32236;SDS011;18726;44.732;10.550;2023-03-01T07:53:05;32.78;;;25.88;;
32236;SDS011;18726;44.732;10.550;2023-03-01T07:56:12;36.10;;;26.25;;
32236;SDS011;18726;44.732;10.550;2023-03-01T07:59:17;36.03;;;25.95;;
32236;SDS011;18726;44.732;10.550;2023-03-01T08:02:21;34.90;;;24.83;;
32236;SDS011;18726;44.732;10.550;2023-03-01T08:05:24;36.08;;;26.15;;
32236;SDS011;18726;44.732;10.550;2023-03-01T08:08:28;38.20;;;26.13;;
32236;SDS011;18726;44.732;10.550;2023-03-01T08:11:32;35.80;;;26.02;;
32236;SDS011;18726;44.732;10.550;2023-03-01T08:14:36;31.70;;;26.05;;
32236;SDS011;18726;44.732;10.550;2023-03-01T08:17:40;31.95;;;24.40;;
32236;SDS011;18726;44.732;10.550;2023-03-01T08:20:43;31.42;;;25.48;;
32236;SDS011;18726;44.732;10.550;2023-03-01T08:23:47;35.67;;;24.83;;
32236;SDS011;18726;44.732;10.550;2023-03-01T08:26:50;39.28;;;25.50;;
32236;SDS011;18726;44.732;10.550;2023-03-01T08:29:54;33.55;;;26.15;;
32236;SDS011;18726;44.732;10.550;2023-03-01T08:32:57;31.52;;;25.10;;
32236;SDS011;18726;44.732;10.550;2023-03-01T08:36:04;35.83;;;27.00;;
32236;SDS011;18726;44.732;10.550;2023-03-01T08:39:11;37.33;;;27.30;;
32236;SDS011;18726;44.732;10.550;2023-03-01T08:42:16;36.47;;;27.52;;
32236;SDS011;18726;44.732;10.550;2023-03-01T08:45:19;34.65;;;26.05;;
32236;SDS011;18726;44.732;10.550;2023-03-01T08:48:23;38.25;;;26.17;;
32236;SDS011;18726;44.732;10.550;2023-03-01T08:51:27;38.70;;;26.88;;
32236;SDS011;18726;44.732;10.550;2023-03-01T08:54:32;35.22;;;27.55;;
32236;SDS011;18726;44.732;10.550;2023-03-01T08:57:36;35.67;;;27.00;;
32236;SDS011;18726;44.732;10.550;2023-03-01T09:00:40;42.38;;;30.08;;
32236;SDS011;18726;44.732;10.550;2023-03-01T09:03:44;38.03;;;27.95;;
32236;SDS011;18726;44.732;10.550;2023-03-01T12:42:42;34.95;;;25.10;;
32236;SDS011;18726;44.732;10.550;2023-03-01T12:46:05;34.03;;;25.48;;
32236;SDS011;18726;44.732;10.550;2023-03-01T12:55:50;31.40;;;24.48;;
32236;SDS011;18726;44.732;10.550;2023-03-01T13:02:19;33.70;;;25.95;;
32236;SDS011;18726;44.732;10.550;2023-03-01T13:05:42;31.38;;;24.30;;
32236;SDS011;18726;44.732;10.550;2023-03-01T13:12:50;39.28;;;28.95;;
32236;SDS011;18726;44.732;10.550;2023-03-01T13:15:54;56.67;;;36.55;;
32236;SDS011;18726;44.732;10.550;2023-03-01T13:19:18;48.72;;;30.88;;
32236;SDS011;18726;44.732;10.550;2023-03-01T13:22:30;39.55;;;27.70;;
32236;SDS011;18726;44.732;10.550;2023-03-01T13:25:59;78.97;;;46.78;;
32236;SDS011;18726;44.732;10.550;2023-03-01T13:29:00;70.18;;;48.45;;
32236;SDS011;18726;44.732;10.550;2023-03-01T13:32:04;50.42;;;33.85;;
32236;SDS011;18726;44.732;10.550;2023-03-01T13:44:46;35.80;;;26.98;;
32236;SDS011;18726;44.732;10.550;2023-03-01T13:47:54;41.85;;;32.45;;
32236;SDS011;18726;44.732;10.550;2023-03-01T13:51:03;44.17;;;33.55;;
32236;SDS011;18726;44.732;10.550;2023-03-01T13:54:11;48.22;;;33.47;;
32236;SDS011;18726;44.732;10.550;2023-03-01T13:57:19;43.80;;;31.67;;
32236;SDS011;18726;44.732;10.550;2023-03-01T14:00:38;35.42;;;27.42;;
32236;SDS011;18726;44.732;10.550;2023-03-01T14:03:43;44.30;;;29.50;;
32236;SDS011;18726;44.732;10.550;2023-03-01T14:06:46;39.53;;;28.10;;
32236;SDS011;18726;44.732;10.550;2023-03-01T14:09:51;39.47;;;27.08;;
32236;SDS011;18726;44.732;10.550;2023-03-01T14:19:36;38.85;;;25.30;;
32236;SDS011;18726;44.732;10.550;2023-03-01T14:22:41;37.50;;;28.23;;
32236;SDS011;18726;44.732;10.550;2023-03-01T14:25:56;35.53;;;25.08;;
32236;SDS011;18726;44.732;10.550;2023-03-01T14:29:01;37.65;;;26.33;;
32236;SDS011;18726;44.732;10.550;2023-03-01T14:35:22;33.28;;;25.95;;
32236;SDS011;18726;44.732;10.550;2023-03-01T14:38:38;34.67;;;26.48;;
32236;SDS011;18726;44.732;10.550;2023-03-01T14:41:43;34.30;;;27.33;;
32236;SDS011;18726;44.732;10.550;2023-03-01T14:44:48;32.83;;;25.50;;
32236;SDS011;18726;44.732;10.550;2023-03-01T14:47:54;32.05;;;24.88;;
32236;SDS011;18726;44.732;10.550;2023-03-01T14:50:59;34.00;;;26.33;;
32236;SDS011;18726;44.732;10.550;2023-03-01T14:54:04;37.20;;;26.10;;
32236;SDS011;18726;44.732;10.550;2023-03-01T14:57:20;41.95;;;28.30;;
32236;SDS011;18726;44.732;10.550;2023-03-01T15:00:27;32.20;;;26.38;;
32236;SDS011;18726;44.732;10.550;2023-03-01T15:03:34;39.55;;;29.42;;
32236;SDS011;18726;44.732;10.550;2023-03-01T15:06:43;39.80;;;29.33;;
32236;SDS011;18726;44.732;10.550;2023-03-01T15:09:46;35.83;;;26.45;;
32236;SDS011;18726;44.732;10.550;2023-03-01T15:12:51;37.80;;;28.63;;
32236;SDS011;18726;44.732;10.550;2023-03-01T15:16:03;34.33;;;25.67;;
32236;SDS011;18726;44.732;10.550;2023-03-01T15:19:15;35.88;;;25.92;;
32236;SDS011;18726;44.732;10.550;2023-03-01T15:26:20;37.15;;;27.38;;
32236;SDS011;18726;44.732;10.550;2023-03-01T15:29:29;39.38;;;27.02;;
32236;SDS011;18726;44.732;10.550;2023-03-01T15:32:36;37.47;;;26.88;;
32236;SDS011;18726;44.732;10.550;2023-03-01T15:35:44;35.50;;;26.83;;
32236;SDS011;18726;44.732;10.550;2023-03-01T15:38:54;36.45;;;27.25;;
32236;SDS011;18726;44.732;10.550;2023-03-01T15:42:01;36.33;;;27.20;;
32236;SDS011;18726;44.732;10.550;2023-03-01T15:48:17;32.05;;;26.90;;
32236;SDS011;18726;44.732;10.550;2023-03-01T15:51:28;36.83;;;29.02;;
32236;SDS011;18726;44.732;10.550;2023-03-01T15:54:39;38.10;;;28.90;;
32236;SDS011;18726;44.732;10.550;2023-03-01T15:57:44;41.22;;;28.85;;
32236;SDS011;18726;44.732;10.550;2023-03-01T16:00:48;36.15;;;28.60;;
32236;SDS011;18726;44.732;10.550;2023-03-01T16:03:55;40.63;;;30.60;;
32236;SDS011;18726;44.732;10.550;2023-03-01T16:06:59;36.47;;;28.52;;
32236;SDS011;18726;44.732;10.550;2023-03-01T16:10:03;33.85;;;25.98;;
32236;SDS011;18726;44.732;10.550;2023-03-01T16:13:07;36.70;;;26.70;;
32236;SDS011;18726;44.732;10.550;2023-03-01T16:16:12;37.95;;;28.27;;
32236;SDS011;18726;44.732;10.550;2023-03-01T16:19:19;37.83;;;29.20;;
32236;SDS011;18726;44.732;10.550;2023-03-01T16:22:23;34.10;;;27.50;;
32236;SDS011;18726;44.732;10.550;2023-03-01T16:25:28;35.20;;;27.42;;
32236;SDS011;18726;44.732;10.550;2023-03-01T16:28:33;33.58;;;25.40;;
32236;SDS011;18726;44.732;10.550;2023-03-01T16:31:36;34.45;;;26.45;;
32236;SDS011;18726;44.732;10.550;2023-03-01T16:34:39;31.05;;;25.85;;
32236;SDS011;18726;44.732;10.550;2023-03-01T16:37:43;34.15;;;26.23;;
32236;SDS011;18726;44.732;10.550;2023-03-01T16:40:49;40.35;;;26.65;;
32236;SDS011;18726;44.732;10.550;2023-03-01T16:43:53;34.90;;;26.92;;
32236;SDS011;18726;44.732;10.550;2023-03-01T16:46:58;83.05;;;37.65;;
32236;SDS011;18726;44.732;10.550;2023-03-01T16:50:01;35.97;;;26.88;;
32236;SDS011;18726;44.732;10.550;2023-03-01T16:56:46;31.10;;;23.90;;
32236;SDS011;18726;44.732;10.550;2023-03-01T16:59:53;47.53;;;31.20;;
32236;SDS011;18726;44.732;10.550;2023-03-01T17:02:57;37.40;;;29.20;;
32236;SDS011;18726;44.732;10.550;2023-03-01T17:06:01;34.88;;;27.30;;
32236;SDS011;18726;44.732;10.550;2023-03-01T17:09:08;30.67;;;25.40;;
32236;SDS011;18726;44.732;10.550;2023-03-01T17:12:12;32.80;;;25.75;;
32236;SDS011;18726;44.732;10.550;2023-03-01T17:15:16;34.63;;;25.73;;
32236;SDS011;18726;44.732;10.550;2023-03-01T17:18:20;28.25;;;23.73;;
32236;SDS011;18726;44.732;10.550;2023-03-01T17:21:25;27.23;;;24.17;;
32236;SDS011;18726;44.732;10.550;2023-03-01T17:24:32;43.92;;;28.85;;
32236;SDS011;18726;44.732;10.550;2023-03-01T17:27:37;33.85;;;24.23;;
32236;SDS011;18726;44.732;10.550;2023-03-01T17:30:42;39.42;;;27.77;;
32236;SDS011;18726;44.732;10.550;2023-03-01T17:33:47;35.28;;;25.77;;
32236;SDS011;18726;44.732;10.550;2023-03-01T17:36:52;36.28;;;30.08;;
32236;SDS011;18726;44.732;10.550;2023-03-01T17:39:56;41.20;;;31.58;;
32236;SDS011;18726;44.732;10.550;2023-03-01T17:43:00;39.33;;;30.40;;
32236;SDS011;18726;44.732;10.550;2023-03-01T17:46:05;37.92;;;28.98;;
32236;SDS011;18726;44.732;10.550;2023-03-01T17:49:09;63.50;;;38.08;;
32236;SDS011;18726;44.732;10.550;2023-03-01T17:52:13;41.53;;;31.88;;
32236;SDS011;18726;44.732;10.550;2023-03-01T17:59:44;93.38;;;59.05;;
32236;SDS011;18726;44.732;10.550;2023-03-01T18:02:47;71.63;;;48.85;;
32236;SDS011;18726;44.732;10.550;2023-03-01T18:05:51;62.25;;;43.47;;
32236;SDS011;18726;44.732;10.550;2023-03-01T18:08:55;54.42;;;41.60;;
32236;SDS011;18726;44.732;10.550;2023-03-01T18:11:59;65.15;;;47.75;;
32236;SDS011;18726;44.732;10.550;2023-03-01T18:15:05;73.53;;;50.30;;
32236;SDS011;18726;44.732;10.550;2023-03-01T18:18:09;53.22;;;40.88;;
32236;SDS011;18726;44.732;10.550;2023-03-01T18:21:13;45.45;;;34.75;;
32236;SDS011;18726;44.732;10.550;2023-03-01T18:24:17;39.03;;;31.52;;
32236;SDS011;18726;44.732;10.550;2023-03-01T18:27:21;48.85;;;37.45;;
32236;SDS011;18726;44.732;10.550;2023-03-01T18:30:24;46.75;;;33.95;;
32236;SDS011;18726;44.732;10.550;2023-03-01T18:33:28;42.65;;;33.78;;
32236;SDS011;18726;44.732;10.550;2023-03-01T18:36:34;41.63;;;32.15;;
32236;SDS011;18726;44.732;10.550;2023-03-01T18:39:38;44.75;;;33.38;;
32236;SDS011;18726;44.732;10.550;2023-03-01T18:42:44;39.10;;;29.90;;
32236;SDS011;18726;44.732;10.550;2023-03-01T18:45:47;38.90;;;31.02;;
32236;SDS011;18726;44.732;10.550;2023-03-01T18:48:51;38.35;;;30.60;;
32236;SDS011;18726;44.732;10.550;2023-03-01T18:51:56;40.28;;;29.77;;
32236;SDS011;18726;44.732;10.550;2023-03-01T18:55:00;33.60;;;29.38;;
32236;SDS011;18726;44.732;10.550;2023-03-01T18:58:04;34.55;;;28.00;;
32236;SDS011;18726;44.732;10.550;2023-03-01T19:01:12;39.08;;;28.85;;
32236;SDS011;18726;44.732;10.550;2023-03-01T19:04:18;35.08;;;27.50;;
32236;SDS011;18726;44.732;10.550;2023-03-01T19:07:22;33.47;;;26.55;;
32236;SDS011;18726;44.732;10.550;2023-03-01T19:10:26;44.47;;;30.05;;
32236;SDS011;18726;44.732;10.550;2023-03-01T19:13:30;46.08;;;32.80;;
32236;SDS011;18726;44.732;10.550;2023-03-01T19:16:36;43.72;;;34.17;;
32236;SDS011;18726;44.732;10.550;2023-03-01T19:19:40;62.58;;;44.33;;
32236;SDS011;18726;44.732;10.550;2023-03-01T19:22:43;53.17;;;39.75;;
32236;SDS011;18726;44.732;10.550;2023-03-01T19:25:46;53.33;;;41.33;;
32236;SDS011;18726;44.732;10.550;2023-03-01T19:28:50;47.75;;;40.08;;
32236;SDS011;18726;44.732;10.550;2023-03-01T19:31:55;47.88;;;33.08;;
32236;SDS011;18726;44.732;10.550;2023-03-01T19:34:58;39.10;;;31.15;;
32236;SDS011;18726;44.732;10.550;2023-03-01T19:38:02;59.38;;;40.28;;
32236;SDS011;18726;44.732;10.550;2023-03-01T19:41:06;54.10;;;38.83;;
32236;SDS011;18726;44.732;10.550;2023-03-01T19:44:17;58.95;;;41.38;;
32236;SDS011;18726;44.732;10.550;2023-03-01T19:47:20;45.00;;;36.22;;
32236;SDS011;18726;44.732;10.550;2023-03-01T19:50:24;43.25;;;34.00;;
32236;SDS011;18726;44.732;10.550;2023-03-01T19:53:28;52.47;;;36.80;;
32236;SDS011;18726;44.732;10.550;2023-03-01T19:56:31;44.75;;;36.97;;
32236;SDS011;18726;44.732;10.550;2023-03-01T19:59:36;61.72;;;39.83;;
32236;SDS011;18726;44.732;10.550;2023-03-01T20:02:39;59.22;;;41.08;;
32236;SDS011;18726;44.732;10.550;2023-03-01T20:05:43;58.10;;;41.00;;
32236;SDS011;18726;44.732;10.550;2023-03-01T20:08:47;78.93;;;47.05;;
32236;SDS011;18726;44.732;10.550;2023-03-01T20:11:51;76.13;;;54.10;;
32236;SDS011;18726;44.732;10.550;2023-03-01T20:14:55;52.05;;;38.92;;
32236;SDS011;18726;44.732;10.550;2023-03-01T20:17:59;47.95;;;36.58;;
32236;SDS011;18726;44.732;10.550;2023-03-01T20:21:03;59.38;;;39.30;;
32236;SDS011;18726;44.732;10.550;2023-03-01T20:24:07;67.60;;;42.50;;
32236;SDS011;18726;44.732;10.550;2023-03-01T20:27:11;73.95;;;45.63;;
32236;SDS011;18726;44.732;10.550;2023-03-01T20:30:14;62.28;;;41.17;;
32236;SDS011;18726;44.732;10.550;2023-03-01T20:33:18;55.70;;;40.55;;
32236;SDS011;18726;44.732;10.550;2023-03-01T20:36:22;62.83;;;43.42;;
32236;SDS011;18726;44.732;10.550;2023-03-01T20:39:26;58.58;;;41.35;;
32236;SDS011;18726;44.732;10.550;2023-03-01T20:42:30;74.25;;;44.53;;
32236;SDS011;18726;44.732;10.550;2023-03-01T20:45:35;56.03;;;39.83;;
32236;SDS011;18726;44.732;10.550;2023-03-01T20:48:40;58.42;;;40.88;;
32236;SDS011;18726;44.732;10.550;2023-03-01T20:51:47;58.17;;;40.72;;
32236;SDS011;18726;44.732;10.550;2023-03-01T20:54:51;58.28;;;42.50;;
32236;SDS011;18726;44.732;10.550;2023-03-01T20:57:55;64.47;;;43.78;;
32236;SDS011;18726;44.732;10.550;2023-03-01T21:00:59;52.13;;;38.40;;
32236;SDS011;18726;44.732;10.550;2023-03-01T21:04:02;61.65;;;42.92;;
32236;SDS011;18726;44.732;10.550;2023-03-01T21:07:06;57.05;;;42.38;;
32236;SDS011;18726;44.732;10.550;2023-03-01T21:10:09;66.55;;;41.13;;
32236;SDS011;18726;44.732;10.550;2023-03-01T21:13:13;59.05;;;41.88;;
32236;SDS011;18726;44.732;10.550;2023-03-01T21:16:17;56.28;;;40.50;;
32236;SDS011;18726;44.732;10.550;2023-03-01T21:19:21;50.40;;;38.47;;
32236;SDS011;18726;44.732;10.550;2023-03-01T21:22:25;55.70;;;39.90;;
32236;SDS011;18726;44.732;10.550;2023-03-01T21:25:29;62.67;;;41.25;;
32236;SDS011;18726;44.732;10.550;2023-03-01T21:28:37;59.70;;;39.33;;
32236;SDS011;18726;44.732;10.550;2023-03-01T21:31:42;52.92;;;39.00;;
32236;SDS011;18726;44.732;10.550;2023-03-01T21:34:46;51.10;;;38.47;;
32236;SDS011;18726;44.732;10.550;2023-03-01T21:37:49;50.58;;;37.55;;
32236;SDS011;18726;44.732;10.550;2023-03-01T21:40:53;47.78;;;37.28;;
32236;SDS011;18726;44.732;10.550;2023-03-01T21:43:58;57.17;;;38.72;;
32236;SDS011;18726;44.732;10.550;2023-03-01T21:47:03;47.92;;;36.42;;
32236;SDS011;18726;44.732;10.550;2023-03-01T21:50:07;50.67;;;37.20;;
32236;SDS011;18726;44.732;10.550;2023-03-01T21:53:11;52.00;;;39.05;;
32236;SDS011;18726;44.732;10.550;2023-03-01T21:56:16;48.95;;;36.22;;
32236;SDS011;18726;44.732;10.550;2023-03-01T21:59:22;50.13;;;38.35;;
32236;SDS011;18726;44.732;10.550;2023-03-01T22:02:30;53.20;;;38.58;;
32236;SDS011;18726;44.732;10.550;2023-03-01T22:05:34;49.17;;;35.70;;
32236;SDS011;18726;44.732;10.550;2023-03-01T22:08:37;41.03;;;33.75;;
32236;SDS011;18726;44.732;10.550;2023-03-01T22:11:45;45.45;;;33.65;;
32236;SDS011;18726;44.732;10.550;2023-03-01T22:14:50;55.08;;;36.95;;
32236;SDS011;18726;44.732;10.550;2023-03-01T22:17:54;53.92;;;37.83;;